Time;durP1;ratioP1;P1;durP2;ratioP2;P2;SDS_P1;SDS_P2;PMS_P1;PMS_P2;Temp;Humidity;BMP_temperature;BMP_pressure;BME280_temperature;BME280_humidity;BME280_pressure;Samples;Min_cycle;Max_cycle;Signal;HPM_P1;HPM_P2
2023/07/07 00:00:32;;;;;;;6.45;4.40;;;;;;;-143.49;100.00;65027.28;5094072;28;20062;-69
2023/07/07 00:02:57;;;;;;;8.40;4.28;;;;;;;-143.49;100.00;65027.28;5094336;28;20028;-69
2023/07/07 00:05:22;;;;;;;8.27;4.20;;;;;;;-143.49;100.00;65027.28;5075902;28;20026;-69
2023/07/07 00:07:48;;;;;;;8.00;4.18;;;;;;;-143.49;100.00;65027.28;5094041;28;20047;-70
2023/07/07 00:10:14;;;;;;;9.23;4.50;;;;;;;-143.49;100.00;65027.28;5094004;28;20513;-69
2023/07/07 00:12:40;;;;;;;6.53;4.20;;;;;;;-143.49;100.00;65027.28;5093923;28;20028;-69
2023/07/07 00:15:06;;;;;;;7.50;4.45;;;;;;;-143.49;100.00;65027.28;5093833;28;20047;-69
2023/07/07 00:17:31;;;;;;;11.30;5.07;;;;;;;-143.49;100.00;65027.28;5093834;28;20066;-68
2023/07/07 00:19:57;;;;;;;12.25;4.93;;;;;;;-143.49;100.00;65027.28;5075571;28;20419;-70
2023/07/07 00:22:22;;;;;;;9.05;4.80;;;;;;;-143.49;100.00;65027.28;5093752;28;20118;-70
2023/07/07 00:24:47;;;;;;;8.85;4.35;;;;;;;-143.49;100.00;65027.28;5093694;28;20027;-70
2023/07/07 00:27:14;;;;;;;10.77;4.68;;;;;;;-143.49;100.00;65027.28;5093350;28;20020;-70
2023/07/07 00:29:39;;;;;;;11.57;4.55;;;;;;;-143.49;100.00;65027.28;5093119;28;20478;-70
2023/07/07 00:32:05;;;;;;;7.65;5.10;;;;;;;-143.49;100.00;65027.28;5075476;28;20052;-70
2023/07/07 00:34:30;;;;;;;8.85;4.78;;;;;;;-143.49;100.00;65027.28;5093537;28;20474;-70
2023/07/07 00:36:55;;;;;;;9.00;4.95;;;;;;;-143.49;100.00;65027.28;5093508;28;20039;-70
2023/07/07 00:39:21;;;;;;;8.82;5.07;;;;;;;-143.49;100.00;65027.28;5093535;28;20499;-69
2023/07/07 00:41:46;;;;;;;10.00;5.03;;;;;;;-143.49;100.00;65027.28;5075321;28;20103;-69
2023/07/07 00:44:12;;;;;;;10.35;5.20;;;;;;;-143.49;100.00;65027.28;5093335;28;20024;-70
2023/07/07 00:46:39;;;;;;;10.77;5.38;;;;;;;-143.49;100.00;65027.28;5075373;28;20382;-69
2023/07/07 00:49:21;;;;;;;8.30;5.18;;;;;;;-143.49;100.00;65027.28;5093373;28;20024;-70
2023/07/07 00:51:51;;;;;;;11.67;5.30;;;;;;;-143.49;100.00;65027.28;5093429;28;20051;-69
2023/07/07 00:54:24;;;;;;;13.93;5.65;;;;;;;-143.49;100.00;65027.28;5093207;28;20270;-69
2023/07/07 00:56:53;;;;;;;9.70;5.43;;;;;;;-143.49;100.00;65027.28;5093338;28;20031;-69
2023/07/07 00:59:40;;;;;;;9.50;5.60;;;;;;;-143.49;100.00;65027.28;5093156;28;20051;-69
2023/07/07 01:02:12;;;;;;;10.13;5.20;;;;;;;-143.49;100.00;65027.28;5093195;28;20103;-69
2023/07/07 01:04:42;;;;;;;12.90;5.53;;;;;;;-143.49;100.00;65027.28;5093114;28;20499;-69
2023/07/07 01:07:18;;;;;;;8.70;5.45;;;;;;;-143.49;100.00;65027.28;5092983;28;20162;-68
2023/07/07 01:09:43;;;;;;;9.95;5.75;;;;;;;-143.49;100.00;65027.28;5075054;28;20032;-70
2023/07/07 01:12:11;;;;;;;8.25;5.45;;;;;;;-143.49;100.00;65027.28;5075056;28;20027;-70
2023/07/07 01:14:37;;;;;;;10.57;5.45;;;;;;;-143.49;100.00;65027.28;5074900;28;20020;-70
2023/07/07 01:17:28;;;;;;;9.13;5.85;;;;;;;-143.49;100.00;65027.28;5074823;28;20031;-70
2023/07/07 01:20:24;;;;;;;8.48;5.65;;;;;;;-143.49;100.00;65027.28;5092947;28;20043;-70
2023/07/07 01:22:49;;;;;;;9.80;5.32;;;;;;;-143.49;100.00;65027.28;5093117;28;20028;-69
2023/07/07 01:25:24;;;;;;;12.02;6.22;;;;;;;-143.49;100.00;65027.28;5092968;28;20494;-70
2023/07/07 01:28:24;;;;;;;9.77;5.57;;;;;;;-143.49;100.00;65027.28;5093058;28;20034;-69
2023/07/07 01:31:07;;;;;;;10.43;5.75;;;;;;;-143.49;100.00;65027.28;5092918;28;20024;-70
2023/07/07 01:33:34;;;;;;;11.27;6.03;;;;;;;-143.49;100.00;65027.28;5092946;28;20501;-70
2023/07/07 01:35:59;;;;;;;11.00;5.57;;;;;;;-143.49;100.00;65027.28;5074927;28;20503;-70
2023/07/07 01:38:37;;;;;;;9.05;6.03;;;;;;;-143.49;100.00;65027.28;5092872;28;20106;-70
2023/07/07 01:41:08;;;;;;;11.88;5.93;;;;;;;-143.49;100.00;65027.28;5078449;28;20036;-70
2023/07/07 01:43:43;;;;;;;12.23;5.70;;;;;;;-143.49;100.00;65027.28;5096672;28;20082;-68
2023/07/07 01:46:30;;;;;;;10.82;5.45;;;;;;;-143.49;100.00;65027.28;5078517;28;20027;-69
2023/07/07 01:49:23;;;;;;;9.77;6.20;;;;;;;-143.49;100.00;65027.28;5096545;28;20020;-69
2023/07/07 01:52:17;;;;;;;13.15;6.03;;;;;;;-143.49;100.00;65027.28;5078360;28;20070;-69
2023/07/07 01:54:53;;;;;;;11.98;6.20;;;;;;;-143.49;100.00;65027.28;5088294;28;20055;-69
2023/07/07 01:57:20;;;;;;;13.65;5.50;;;;;;;-143.49;100.00;65027.28;5096442;28;20078;-69
2023/07/07 01:59:45;;;;;;;9.70;5.90;;;;;;;-143.49;100.00;65027.28;5096507;28;20022;-70
2023/07/07 02:02:11;;;;;;;12.40;6.47;;;;;;;-143.49;100.00;65027.28;5096526;28;20036;-69
2023/07/07 02:04:36;;;;;;;11.40;6.50;;;;;;;-143.49;100.00;65027.28;5078096;28;20016;-69
2023/07/07 02:07:01;;;;;;;12.02;6.47;;;;;;;-143.49;100.00;65027.28;5077988;28;20135;-70
2023/07/07 02:09:27;;;;;;;11.73;6.85;;;;;;;-143.49;100.00;65027.28;5096446;28;20438;-70
2023/07/07 02:11:52;;;;;;;11.25;6.07;;;;;;;-143.49;100.00;65027.28;5096226;28;20031;-70
2023/07/07 02:14:17;;;;;;;9.70;6.60;;;;;;;-143.49;100.00;65027.28;5096248;28;20024;-70
2023/07/07 02:16:43;;;;;;;12.13;6.78;;;;;;;-143.49;100.00;65027.28;5077991;28;20030;-69
2023/07/07 02:19:08;;;;;;;10.63;6.13;;;;;;;-143.49;100.00;65027.28;5077926;28;20106;-68
2023/07/07 02:21:33;;;;;;;11.00;6.70;;;;;;;-143.49;100.00;65027.28;5095975;28;20019;-69
2023/07/07 02:23:59;;;;;;;10.95;6.72;;;;;;;-143.49;100.00;65027.28;5095907;28;20024;-69
2023/07/07 02:26:24;;;;;;;9.38;6.22;;;;;;;-143.49;100.00;65027.28;5076821;28;20082;-71
2023/07/07 02:28:50;;;;;;;9.93;6.43;;;;;;;-143.49;100.00;65027.28;5076720;28;20020;-70
2023/07/07 02:31:15;;;;;;;8.88;6.63;;;;;;;-143.49;100.00;65027.28;5095193;28;20031;-70
2023/07/07 02:33:41;;;;;;;18.88;6.95;;;;;;;-143.49;100.00;65027.28;5095861;28;20482;-70
2023/07/07 02:36:08;;;;;;;16.35;6.93;;;;;;;-143.49;100.00;65027.28;5095813;28;20035;-70
2023/07/07 02:38:37;;;;;;;10.30;6.30;;;;;;;-143.49;100.00;65027.28;5094811;28;20016;-70
2023/07/07 02:41:03;;;;;;;12.02;6.55;;;;;;;-143.49;100.00;65027.28;5077446;28;20028;-70
2023/07/07 02:43:28;;;;;;;10.15;6.53;;;;;;;-143.49;100.00;65027.28;5077562;28;20024;-70
2023/07/07 02:45:54;;;;;;;11.18;6.72;;;;;;;-143.49;100.00;65027.28;5076300;28;20020;-70
2023/07/07 02:48:21;;;;;;;10.57;6.68;;;;;;;-143.49;100.00;65027.28;5093645;28;20468;-70
2023/07/07 02:51:01;;;;;;;9.93;6.65;;;;;;;-143.49;100.00;65027.28;5074254;28;20026;-70
2023/07/07 02:53:29;;;;;;;10.57;6.80;;;;;;;-143.49;100.00;65027.28;5093551;28;20056;-70
2023/07/07 02:55:54;;;;;;;12.68;7.00;;;;;;;-143.49;100.00;65027.28;5093643;28;20103;-70
2023/07/07 02:58:20;;;;;;;10.40;6.55;;;;;;;-143.49;100.00;65027.28;5093351;28;20170;-70
2023/07/07 03:00:47;;;;;;;9.77;6.47;;;;;;;-143.49;100.00;65027.28;5092704;28;20020;-69
2023/07/07 03:03:12;;;;;;;14.45;7.18;;;;;;;-143.49;100.00;65027.28;5095177;28;20102;-69
2023/07/07 03:05:38;;;;;;;14.48;7.07;;;;;;;-143.49;100.00;65027.28;5095223;28;20142;-70
2023/07/07 03:08:03;;;;;;;11.02;6.82;;;;;;;-143.49;100.00;65027.28;5076870;28;20047;-70
2023/07/07 03:10:32;;;;;;;9.48;6.65;;;;;;;-143.49;100.00;65027.28;5095210;28;20028;-69
2023/07/07 03:12:58;;;;;;;12.85;7.32;;;;;;;-143.49;100.00;65027.28;5095117;28;20492;-70
2023/07/07 03:15:23;;;;;;;12.60;7.05;;;;;;;-143.49;100.00;65027.28;5095082;28;20048;-70
2023/07/07 03:17:48;;;;;;;13.45;6.90;;;;;;;-143.49;100.00;65027.28;5094973;28;20471;-71
2023/07/07 03:20:14;;;;;;;12.10;7.28;;;;;;;-143.49;100.00;65027.28;5094875;28;20111;-70
2023/07/07 03:22:39;;;;;;;12.68;6.82;;;;;;;-143.49;100.00;65027.28;5094999;28;20360;-69
2023/07/07 03:25:05;;;;;;;11.43;7.05;;;;;;;-143.49;100.00;65027.28;5094780;28;20036;-69
2023/07/07 03:27:31;;;;;;;13.55;6.90;;;;;;;-143.49;100.00;65027.28;5094837;28;20028;-69
2023/07/07 03:29:56;;;;;;;12.68;6.60;;;;;;;-143.49;100.00;65027.28;5094732;28;20491;-68
2023/07/07 03:32:21;;;;;;;11.93;6.95;;;;;;;-143.49;100.00;65027.28;5094691;28;20471;-69
2023/07/07 03:34:49;;;;;;;15.27;7.10;;;;;;;-143.49;100.00;65027.28;5094707;28;20387;-69
2023/07/07 03:37:15;;;;;;;12.27;7.07;;;;;;;-143.49;100.00;65027.28;5094583;28;20020;-69
2023/07/07 03:39:41;;;;;;;10.05;6.93;;;;;;;-143.49;100.00;65027.28;5094587;28;20085;-69
2023/07/07 03:42:08;;;;;;;10.80;6.97;;;;;;;-143.49;100.00;65027.28;5076396;28;20027;-69
2023/07/07 03:44:34;;;;;;;11.45;6.30;;;;;;;-143.49;100.00;65027.28;5094401;28;20016;-69
2023/07/07 03:46:59;;;;;;;13.85;7.30;;;;;;;-143.49;100.00;65027.28;5076249;28;20023;-69
2023/07/07 03:49:24;;;;;;;10.38;6.65;;;;;;;-143.49;100.00;65027.28;5094366;28;20494;-69
2023/07/07 03:51:50;;;;;;;9.70;6.90;;;;;;;-143.49;100.00;65027.28;5094405;28;20099;-69
2023/07/07 03:54:15;;;;;;;9.63;6.72;;;;;;;-143.49;100.00;65027.28;5094295;28;20468;-69
2023/07/07 03:56:41;;;;;;;14.00;7.03;;;;;;;-143.49;100.00;65027.28;5094351;28;20020;-70
2023/07/07 03:59:06;;;;;;;10.57;6.70;;;;;;;-143.49;100.00;65027.28;5094206;28;20028;-69
2023/07/07 04:01:32;;;;;;;13.27;7.10;;;;;;;-143.49;100.00;65027.28;5094058;28;20020;-69
2023/07/07 04:03:57;;;;;;;11.52;6.53;;;;;;;-143.49;100.00;65027.28;5075779;28;20027;-68
2023/07/07 04:06:23;;;;;;;11.57;6.75;;;;;;;-143.49;100.00;65027.28;5075910;28;20023;-69
2023/07/07 04:08:48;;;;;;;15.20;7.10;;;;;;;-143.49;100.00;65027.28;5093870;28;20047;-69
2023/07/07 04:11:17;;;;;;;11.02;6.90;;;;;;;-143.49;100.00;65027.28;5075771;28;20122;-70
2023/07/07 04:13:44;;;;;;;12.77;7.05;;;;;;;-143.49;100.00;65027.28;5093819;28;20034;-69
2023/07/07 04:16:13;;;;;;;9.70;6.22;;;;;;;-143.49;100.00;65027.28;5093896;28;20024;-69
2023/07/07 04:18:39;;;;;;;14.43;6.60;;;;;;;-143.49;100.00;65027.28;5093833;28;20050;-69
2023/07/07 04:21:09;;;;;;;11.23;6.53;;;;;;;-143.49;100.00;65027.28;5093826;28;20079;-68
2023/07/07 04:23:35;;;;;;;10.60;6.70;;;;;;;-143.49;100.00;65027.28;5093861;28;20028;-69
2023/07/07 04:26:01;;;;;;;13.77;6.35;;;;;;;-143.49;100.00;65027.28;5093668;28;20030;-70
2023/07/07 04:28:26;;;;;;;12.68;6.40;;;;;;;-143.49;100.00;65027.28;5093618;28;20103;-69
2023/07/07 04:30:54;;;;;;;11.15;6.18;;;;;;;-143.49;100.00;65027.28;5093817;28;20067;-69
2023/07/07 04:33:20;;;;;;;10.85;6.05;;;;;;;-143.49;100.00;65027.28;5093573;28;20027;-69
2023/07/07 04:35:54;;;;;;;8.82;5.97;;;;;;;-143.49;100.00;65027.28;5093596;28;20020;-69
2023/07/07 04:38:21;;;;;;;12.10;6.30;;;;;;;-143.49;100.00;65027.28;5075364;28;20024;-69
2023/07/07 04:40:47;;;;;;;14.27;6.90;;;;;;;-143.49;100.00;65027.28;5075283;28;20045;-69
2023/07/07 04:43:12;;;;;;;10.57;5.90;;;;;;;-143.49;100.00;65027.28;5093394;28;20024;-68
2023/07/07 04:45:37;;;;;;;13.43;6.30;;;;;;;-143.49;100.00;65027.28;5093402;28;20024;-69
2023/07/07 04:48:03;;;;;;;10.70;6.13;;;;;;;-143.49;100.00;65027.28;5093364;28;20468;-69
2023/07/07 04:50:28;;;;;;;12.20;6.15;;;;;;;-143.49;100.00;65027.28;5093459;28;20115;-70
2023/07/07 04:52:54;;;;;;;11.63;6.18;;;;;;;-143.49;100.00;65027.28;5075213;28;20028;-70
2023/07/07 04:55:19;;;;;;;12.73;6.30;;;;;;;-143.49;100.00;65027.28;5075177;28;20493;-70
2023/07/07 04:57:45;;;;;;;9.88;5.65;;;;;;;-143.49;100.00;65027.28;5093218;28;20364;-69
2023/07/07 05:00:11;;;;;;;10.13;5.93;;;;;;;-143.49;100.00;65027.28;5093258;28;20024;-69
2023/07/07 05:02:36;;;;;;;13.32;5.70;;;;;;;-143.49;100.00;65027.28;5076142;28;20028;-70
2023/07/07 05:05:02;;;;;;;9.77;5.80;;;;;;;-143.49;100.00;65027.28;5075113;28;20535;-69
2023/07/07 05:07:28;;;;;;;11.43;5.75;;;;;;;-143.49;100.00;65027.28;5093146;28;20056;-70
2023/07/07 05:09:54;;;;;;;11.10;5.43;;;;;;;-143.49;100.00;65027.28;5075144;28;20035;-68
2023/07/07 05:12:20;;;;;;;9.35;5.03;;;;;;;-143.49;100.00;65027.28;5093156;28;20024;-69
2023/07/07 05:14:45;;;;;;;8.60;5.50;;;;;;;-143.49;100.00;65027.28;5076894;28;20491;-70
2023/07/07 05:17:10;;;;;;;8.85;5.00;;;;;;;-143.49;100.00;65027.28;5097362;28;20035;-70
2023/07/07 05:19:36;;;;;;;8.23;5.00;;;;;;;-143.49;100.00;65027.28;5097103;28;20162;-69
2023/07/07 05:22:01;;;;;;;8.60;4.68;;;;;;;-143.49;100.00;65027.28;5097220;28;20085;-69
2023/07/07 05:24:27;;;;;;;10.82;4.88;;;;;;;-143.49;100.00;65027.28;5097020;28;20425;-69
2023/07/07 05:26:53;;;;;;;11.00;5.00;;;;;;;-143.49;100.00;65027.28;5097205;28;20030;-69
2023/07/07 05:29:19;;;;;;;7.82;4.82;;;;;;;-143.49;100.00;65027.28;5097241;28;20460;-70
2023/07/07 05:31:44;;;;;;;10.27;4.35;;;;;;;-143.49;100.00;65027.28;5078681;28;20030;-70
2023/07/07 05:34:10;;;;;;;7.18;4.25;;;;;;;-143.49;100.00;65027.28;5097260;28;20020;-70
2023/07/07 05:36:35;;;;;;;10.65;4.45;;;;;;;-143.49;100.00;65027.28;5096886;28;20541;-70
2023/07/07 05:39:01;;;;;;;10.00;4.28;;;;;;;-143.49;100.00;65027.28;5096952;28;20043;-70
2023/07/07 05:41:26;;;;;;;8.07;4.18;;;;;;;-143.49;100.00;65027.28;5097105;28;20103;-69
2023/07/07 05:43:51;;;;;;;7.88;3.95;;;;;;;-143.49;100.00;65027.28;5078826;28;20024;-70
2023/07/07 05:46:18;;;;;;;10.18;4.13;;;;;;;-143.49;100.00;65027.28;5096725;28;20031;-69
2023/07/07 05:48:44;;;;;;;9.20;4.25;;;;;;;-143.49;100.00;65027.28;5078625;28;20027;-69
2023/07/07 05:51:15;;;;;;;7.60;3.45;;;;;;;-143.49;100.00;65027.28;5096905;28;20043;-69
2023/07/07 05:53:42;;;;;;;6.13;3.10;;;;;;;-143.49;100.00;65027.28;5097020;28;20495;-69
2023/07/07 05:56:17;;;;;;;8.23;3.20;;;;;;;-143.49;100.00;65027.28;5078501;28;20012;-71
2023/07/07 05:58:42;;;;;;;6.20;3.30;;;;;;;-143.49;100.00;65027.28;5096699;28;20024;-71
2023/07/07 06:01:10;;;;;;;6.72;3.03;;;;;;;-143.49;100.00;65027.28;5096732;28;20046;-71
2023/07/07 06:03:37;;;;;;;8.82;3.00;;;;;;;-143.49;100.00;65027.28;5078560;28;20020;-70
2023/07/07 06:06:02;;;;;;;8.30;3.10;;;;;;;-143.49;100.00;65027.28;5098469;28;20039;-71
2023/07/07 06:08:28;;;;;;;7.07;2.80;;;;;;;-143.49;100.00;65027.28;5080304;28;20043;-71
2023/07/07 06:10:53;;;;;;;9.18;3.03;;;;;;;-143.49;100.00;65027.28;5098690;28;20031;-70
2023/07/07 06:13:23;;;;;;;13.52;2.90;;;;;;;-143.49;100.00;65027.28;5098053;28;20016;-70
2023/07/07 06:15:49;;;;;;;5.97;2.67;;;;;;;-143.49;100.00;65027.28;5080259;28;20463;-70
2023/07/07 06:18:14;;;;;;;6.40;3.00;;;;;;;-143.49;100.00;65027.28;5098235;28;20031;-73
2023/07/07 06:20:40;;;;;;;6.32;2.63;;;;;;;-143.49;100.00;65027.28;5080820;28;20024;-73
2023/07/07 06:23:08;;;;;;;10.50;3.00;;;;;;;-143.49;100.00;65027.28;5097751;28;20458;-73
2023/07/07 06:25:33;;;;;;;7.95;2.80;;;;;;;-143.49;100.00;65027.28;5076797;28;20039;-73
2023/07/07 06:27:58;;;;;;;7.18;2.72;;;;;;;-143.49;100.00;65027.28;5078151;28;20429;-73
2023/07/07 06:30:24;;;;;;;8.25;2.78;;;;;;;-143.49;100.00;65027.28;5095259;28;20027;-72
2023/07/07 06:32:49;;;;;;;8.52;2.90;;;;;;;-143.49;100.00;65027.28;5096296;28;20090;-72
2023/07/07 06:35:14;;;;;;;6.30;2.60;;;;;;;-143.49;100.00;65027.28;5096220;28;20050;-72
2023/07/07 06:37:40;;;;;;;6.38;2.90;;;;;;;-143.49;100.00;65027.28;5078104;28;20024;-71
2023/07/07 06:40:05;;;;;;;7.93;2.60;;;;;;;-143.49;100.00;65027.28;5095219;28;20111;-70
2023/07/07 06:42:31;;;;;;;6.65;2.70;;;;;;;-143.49;100.00;65027.28;5095826;28;20063;-72
2023/07/07 06:44:56;;;;;;;5.50;2.33;;;;;;;-143.49;100.00;65027.28;5095823;28;20506;-72
2023/07/07 06:47:21;;;;;;;6.72;2.63;;;;;;;-143.49;100.00;65027.28;5077623;28;20064;-71
2023/07/07 06:49:47;;;;;;;5.90;2.78;;;;;;;-143.49;100.00;65027.28;5096180;28;20463;-77
2023/07/07 06:52:12;;;;;;;4.90;2.40;;;;;;;-143.49;100.00;65027.28;5097426;28;20094;-76
2023/07/07 06:54:37;;;;;;;6.85;2.70;;;;;;;-143.49;100.00;65027.28;5077949;28;20363;-78
2023/07/07 06:57:03;;;;;;;6.85;2.40;;;;;;;-143.49;100.00;65027.28;5078128;28;20035;-77
2023/07/07 06:59:29;;;;;;;5.80;2.47;;;;;;;-143.49;100.00;65027.28;5095973;28;20031;-77
2023/07/07 07:01:54;;;;;;;6.28;2.70;;;;;;;-143.49;100.00;65027.28;5095347;28;20024;-79
2023/07/07 07:04:19;;;;;;;4.57;2.42;;;;;;;-143.49;100.00;65027.28;5094357;28;20032;-77
2023/07/07 07:06:45;;;;;;;6.78;2.30;;;;;;;-143.49;100.00;65027.28;5095309;28;20020;-78
2023/07/07 07:09:10;;;;;;;5.82;2.40;;;;;;;-143.49;100.00;65027.28;5095628;28;20023;-77
2023/07/07 07:11:35;;;;;;;4.75;2.17;;;;;;;-143.49;100.00;65027.28;5094812;28;20020;-78
2023/07/07 07:14:01;;;;;;;8.70;2.70;;;;;;;-143.49;100.00;65027.28;5094942;28;20031;-77
2023/07/07 07:16:26;;;;;;;7.25;2.30;;;;;;;-143.49;100.00;65027.28;5094975;28;20024;-77
2023/07/07 07:18:52;;;;;;;4.63;2.30;;;;;;;-143.49;100.00;65027.28;5095298;28;20078;-77
2023/07/07 07:21:17;;;;;;;6.47;2.20;;;;;;;-143.49;100.00;65027.28;5094431;28;20020;-77
2023/07/07 07:23:42;;;;;;;4.30;2.10;;;;;;;-143.49;100.00;65027.28;5074255;28;20054;-77
2023/07/07 07:26:08;;;;;;;4.95;2.10;;;;;;;-143.49;100.00;65027.28;5092900;28;20028;-77
2023/07/07 07:28:33;;;;;;;6.82;2.20;;;;;;;-143.49;100.00;65027.28;5093631;28;20067;-76
2023/07/07 07:30:58;;;;;;;6.82;2.42;;;;;;;-143.49;100.00;65027.28;5076449;28;20361;-76
2023/07/07 07:33:24;;;;;;;6.85;2.33;;;;;;;-143.49;100.00;65027.28;5094605;28;20157;-77
2023/07/07 07:35:49;;;;;;;9.02;2.30;;;;;;;-143.49;100.00;65027.28;5094797;28;20137;-77
2023/07/07 07:38:16;;;;;;;5.35;2.40;;;;;;;-143.49;100.00;65027.28;5075967;28;20379;-77
2023/07/07 07:40:42;;;;;;;4.70;2.17;;;;;;;-143.49;100.00;65027.28;5094484;28;20027;-77
2023/07/07 07:43:08;;;;;;;6.13;2.42;;;;;;;-143.49;100.00;65027.28;5094619;28;20024;-77
2023/07/07 07:45:35;;;;;;;4.90;2.33;;;;;;;-143.49;100.00;65027.28;5076101;28;20031;-76
2023/07/07 07:48:00;;;;;;;5.85;2.10;;;;;;;-143.49;100.00;65027.28;5094246;28;20027;-76
2023/07/07 07:50:26;;;;;;;6.97;2.42;;;;;;;-143.49;100.00;65027.28;5094442;28;20032;-78
2023/07/07 07:52:52;;;;;;;6.07;2.40;;;;;;;-143.49;100.00;65027.28;5075971;28;20020;-78
2023/07/07 07:55:17;;;;;;;7.38;2.28;;;;;;;-143.49;100.00;65027.28;5094056;28;20481;-77
2023/07/07 07:57:43;;;;;;;5.35;2.00;;;;;;;-143.49;100.00;65027.28;5094026;28;20047;-78
2023/07/07 08:00:10;;;;;;;6.78;2.28;;;;;;;-143.49;100.00;65027.28;5094056;28;20059;-78
2023/07/07 08:02:37;;;;;;;5.65;2.38;;;;;;;-143.49;100.00;65027.28;5094146;28;20032;-77
2023/07/07 08:05:02;;;;;;;6.45;2.60;;;;;;;-143.49;100.00;65027.28;5093953;28;20525;-76
2023/07/07 08:07:28;;;;;;;5.75;2.30;;;;;;;-143.49;100.00;65027.28;5075559;28;20052;-77
2023/07/07 08:09:53;;;;;;;5.13;2.40;;;;;;;-143.49;100.00;65027.28;5075779;28;20526;-78
2023/07/07 08:12:19;;;;;;;4.95;1.98;;;;;;;-143.49;100.00;65027.28;5075734;28;20069;-78
2023/07/07 08:14:44;;;;;;;7.63;2.10;;;;;;;-143.49;100.00;65027.28;5093822;28;20098;-76
2023/07/07 08:17:14;;;;;;;3.95;2.13;;;;;;;-143.49;100.00;65027.28;5093694;28;20020;-77
2023/07/07 08:19:41;;;;;;;5.60;2.15;;;;;;;-143.49;100.00;65027.28;5093474;28;20032;-78
2023/07/07 08:22:11;;;;;;;4.55;2.30;;;;;;;-143.49;100.00;65027.28;5093377;28;20024;-77
2023/07/07 08:24:43;;;;;;;4.88;2.10;;;;;;;-143.49;100.00;65027.28;5092956;28;20027;-76
2023/07/07 08:27:09;;;;;;;5.10;2.20;;;;;;;-143.49;100.00;65027.28;5075185;28;20024;-77
2023/07/07 08:29:34;;;;;;;4.35;2.30;;;;;;;-143.49;100.00;65027.28;5091930;28;20028;-77
2023/07/07 08:32:00;;;;;;;4.78;2.17;;;;;;;-143.49;100.00;65027.28;5074056;28;20027;-76
2023/07/07 08:34:25;;;;;;;3.90;2.30;;;;;;;-143.49;100.00;65027.28;5075386;28;20071;-77
2023/07/07 08:36:53;;;;;;;4.82;2.20;;;;;;;-143.49;100.00;65027.28;5093593;28;20122;-78
2023/07/07 08:39:21;;;;;;;5.05;2.28;;;;;;;-143.49;100.00;65027.28;5093532;28;20428;-77
2023/07/07 08:41:50;;;;;;;7.18;2.20;;;;;;;-143.49;100.00;65027.28;5093489;28;20480;-78
2023/07/07 08:44:20;;;;;;;6.07;2.20;;;;;;;-143.49;100.00;65027.28;5093306;28;20070;-76
2023/07/07 08:47:04;;;;;;;5.38;2.33;;;;;;;-143.49;100.00;65027.28;5074753;28;20028;-76
2023/07/07 08:49:40;;;;;;;7.57;2.38;;;;;;;-143.49;100.00;65027.28;5092080;28;20027;-77
2023/07/07 08:52:11;;;;;;;5.45;2.28;;;;;;;-143.49;100.00;65027.28;5092759;28;20028;-77
2023/07/07 08:54:48;;;;;;;5.07;2.22;;;;;;;-143.49;100.00;65027.28;5092670;28;20020;-77
2023/07/07 08:57:15;;;;;;;7.60;2.30;;;;;;;-143.49;100.00;65027.28;5092627;28;20028;-76
2023/07/07 08:59:49;;;;;;;4.25;2.40;;;;;;;-143.49;100.00;65027.28;5074548;28;20056;-78
2023/07/07 09:02:30;;;;;;;4.00;2.15;;;;;;;-143.49;100.00;65027.28;5092952;28;20036;-78
2023/07/07 09:05:00;;;;;;;4.40;2.20;;;;;;;-143.49;100.00;65027.28;5075084;28;20030;-77
2023/07/07 09:07:36;;;;;;;3.53;2.00;;;;;;;-143.49;100.00;65027.28;5074846;28;20052;-77
2023/07/07 09:10:13;;;;;;;4.60;2.05;;;;;;;-143.49;100.00;65027.28;5093166;28;20479;-78
2023/07/07 09:12:47;;;;;;;4.05;1.88;;;;;;;-143.49;100.00;65027.28;5093167;28;20024;-79
2023/07/07 09:15:21;;;;;;;7.25;2.40;;;;;;;-143.49;100.00;65027.28;5093037;28;20016;-77
2023/07/07 09:17:51;;;;;;;3.97;2.08;;;;;;;-143.49;100.00;65027.28;5093383;28;20114;-79
2023/07/07 09:20:20;;;;;;;4.60;2.10;;;;;;;-143.49;100.00;65027.28;5092882;28;20066;-78
2023/07/07 09:22:55;;;;;;;4.60;2.10;;;;;;;-143.49;100.00;65027.28;5092978;28;20052;-78
2023/07/07 09:25:28;;;;;;;5.07;2.30;;;;;;;-143.49;100.00;65027.28;5093008;28;20028;-77
2023/07/07 09:27:58;;;;;;;;;;;;;;;-143.49;100.00;65027.28;5093436;28;20024;-78
2023/07/07 09:30:32;;;;;;;4.53;2.22;;;;;;;-143.49;100.00;65027.28;5093236;28;19961;-77
2023/07/07 09:32:57;;;;;;;7.05;1.95;;;;;;;-143.49;100.00;65027.28;5074754;28;20028;-77
2023/07/07 09:35:27;;;;;;;5.38;2.20;;;;;;;-143.49;100.00;65027.28;5092911;28;20073;-78
2023/07/07 09:38:15;;;;;;;3.97;2.20;;;;;;;-143.49;100.00;65027.28;5092891;28;20061;-77
2023/07/07 09:40:48;;;;;;;5.40;2.30;;;;;;;-143.49;100.00;65027.28;5074826;28;20034;-76
2023/07/07 09:43:23;;;;;;;5.43;2.33;;;;;;;-143.49;100.00;65027.28;5092879;28;20539;-75
2023/07/07 09:45:52;;;;;;;7.90;2.50;;;;;;;-143.49;100.00;65027.28;5074576;28;20020;-77
2023/07/07 09:48:34;;;;;;;5.80;2.67;;;;;;;-143.49;100.00;65027.28;5092823;28;20032;-74
2023/07/07 09:51:33;;;;;;;4.00;2.60;;;;;;;-143.49;100.00;65027.28;5092692;28;20099;-77
2023/07/07 09:53:59;;;;;;;4.13;2.10;;;;;;;-143.49;100.00;65027.28;5092912;28;20440;-81
2023/07/07 09:56:34;;;;;;;4.93;2.35;;;;;;;-143.49;100.00;65027.28;5074210;28;20106;-79
2023/07/07 09:59:14;;;;;;;5.32;2.25;;;;;;;-143.49;100.00;65027.28;5092500;28;20028;-78
2023/07/07 10:01:44;;;;;;;3.80;2.22;;;;;;;-143.49;100.00;65027.28;5095601;28;20024;-78
2023/07/07 10:04:15;;;;;;;5.38;2.30;;;;;;;-143.49;100.00;65027.28;5095923;28;20040;-77
2023/07/07 10:06:49;;;;;;;6.50;2.20;;;;;;;-143.49;100.00;65027.28;5095761;28;20104;-79
2023/07/07 10:09:15;;;;;;;6.07;2.35;;;;;;;-143.49;100.00;65027.28;5096061;28;20028;-79
2023/07/07 10:11:42;;;;;;;4.70;2.42;;;;;;;-143.49;100.00;65027.28;5078023;28;20043;-79
2023/07/07 10:14:11;;;;;;;4.97;2.22;;;;;;;-143.49;100.00;65027.28;5078453;28;20070;-79
2023/07/07 10:16:55;;;;;;;5.38;2.42;;;;;;;-143.49;100.00;65027.28;5078302;28;20028;-80
2023/07/07 10:19:22;;;;;;;5.22;2.33;;;;;;;-143.49;100.00;65027.28;5077589;28;20031;-77
2023/07/07 10:21:48;;;;;;;5.03;2.28;;;;;;;-143.49;100.00;65027.28;5096148;28;20169;-78
2023/07/07 10:24:14;;;;;;;4.15;2.20;;;;;;;-143.49;100.00;65027.28;5095963;28;20118;-80
2023/07/07 10:26:44;;;;;;;4.88;2.40;;;;;;;-143.49;100.00;65027.28;5096121;28;20103;-81
2023/07/07 10:29:13;;;;;;;5.57;2.60;;;;;;;-143.49;100.00;65027.28;5077845;28;20051;-81
2023/07/07 10:31:43;;;;;;;4.00;2.40;;;;;;;-143.49;100.00;65027.28;5077105;28;20031;-78
2023/07/07 10:34:32;;;;;;;4.35;2.20;;;;;;;-143.49;100.00;65027.28;5095963;28;20034;-78
2023/07/07 10:36:59;;;;;;;5.97;2.25;;;;;;;-143.49;100.00;65027.28;5096038;28;20077;-81
2023/07/07 10:39:27;;;;;;;5.55;2.38;;;;;;;-143.49;100.00;65027.28;5095771;28;20031;-79
2023/07/07 10:41:52;;;;;;;5.07;2.30;;;;;;;-143.49;100.00;65027.28;5095641;28;20395;-79
2023/07/07 10:44:18;;;;;;;5.32;2.38;;;;;;;-143.49;100.00;65027.28;5095760;28;20028;-79
2023/07/07 10:46:44;;;;;;;6.07;2.60;;;;;;;-143.49;100.00;65027.28;5077299;28;20028;-76
2023/07/07 10:49:15;;;;;;;3.70;2.30;;;;;;;-143.49;100.00;65027.28;5095613;28;20028;-80
2023/07/07 10:52:02;;;;;;;4.85;2.67;;;;;;;-143.49;100.00;65027.28;5095660;28;20032;-78
2023/07/07 10:54:50;;;;;;;3.97;2.05;;;;;;;-143.49;100.00;65027.28;5095598;28;20095;-79
2023/07/07 10:57:42;;;;;;;4.03;2.40;;;;;;;-143.49;100.00;65027.28;5095692;28;20024;-79
2023/07/07 11:00:18;;;;;;;5.63;2.30;;;;;;;-143.49;100.00;65027.28;5057498;28;20092;-80
2023/07/07 11:03:23;;;;;;;4.20;2.30;;;;;;;-143.49;100.00;65027.28;5077258;28;20038;-78
2023/07/07 11:06:03;;;;;;;5.18;2.50;;;;;;;-143.49;100.00;65027.28;5096401;28;20420;-79
2023/07/07 11:08:38;;;;;;;6.05;2.30;;;;;;;-143.49;100.00;65027.28;5096022;28;20048;-81
2023/07/07 11:11:09;;;;;;;4.75;2.50;;;;;;;-143.49;100.00;65027.28;5096297;28;20024;-81
2023/07/07 11:13:45;;;;;;;4.85;2.40;;;;;;;-143.49;100.00;65027.28;5095438;28;20028;-82